createdAt,value
2018-12-20T00:00:53.212Z,9.90
2018-12-20T00:03:20.415Z,11.70
2018-12-20T00:05:47.892Z,11.50
2018-12-20T00:08:15.190Z,11.30
2018-12-20T00:10:42.589Z,9.97
2018-12-20T00:13:09.858Z,10.17
2018-12-20T00:15:37.120Z,10.70
2018-12-20T00:18:04.439Z,11.03
2018-12-20T00:20:31.798Z,11.07
2018-12-20T00:22:59.160Z,12.30
2018-12-20T00:25:26.530Z,10.70
2018-12-20T00:27:53.818Z,11.20
2018-12-20T00:30:21.085Z,10.60
2018-12-20T00:32:48.289Z,9.43
2018-12-20T00:35:16.156Z,11.30
2018-12-20T00:37:43.511Z,11.03
2018-12-20T00:40:11.067Z,11.60
2018-12-20T00:42:38.481Z,11.57
2018-12-20T00:45:05.854Z,12.03
2018-12-20T00:47:33.276Z,11.60
2018-12-20T00:50:00.779Z,12.63
2018-12-20T00:52:28.100Z,11.20
2018-12-20T00:54:55.383Z,13.53
2018-12-20T00:57:22.661Z,12.20
2018-12-20T00:59:49.893Z,11.30
2018-12-20T01:02:17.122Z,12.27
2018-12-20T01:04:44.497Z,11.93
2018-12-20T01:07:12.212Z,10.80
2018-12-20T01:09:39.584Z,11.80
2018-12-20T01:12:06.911Z,11.87
2018-12-20T01:14:34.199Z,11.70
2018-12-20T01:17:01.524Z,11.00
2018-12-20T01:19:28.875Z,11.47
2018-12-20T01:21:56.366Z,11.07
2018-12-20T01:24:23.620Z,10.93
2018-12-20T01:26:50.934Z,10.90
2018-12-20T01:29:18.495Z,11.20
2018-12-20T01:31:45.929Z,11.00
2018-12-20T01:34:13.478Z,10.93
2018-12-20T01:36:40.929Z,10.90
2018-12-20T01:39:08.313Z,10.70
2018-12-20T01:41:35.590Z,11.87
2018-12-20T01:44:02.932Z,10.60
2018-12-20T01:46:30.293Z,10.77
2018-12-20T01:48:57.549Z,11.23
2018-12-20T01:51:24.981Z,11.40
2018-12-20T01:53:52.386Z,10.43
2018-12-20T01:56:19.725Z,11.67
2018-12-20T01:58:46.926Z,10.53
2018-12-20T02:01:14.303Z,11.30
2018-12-20T02:03:41.731Z,10.97
2018-12-20T02:06:09.037Z,10.87
2018-12-20T02:08:36.336Z,11.47
2018-12-20T02:11:03.647Z,10.43
2018-12-20T02:13:30.877Z,10.63
2018-12-20T02:15:58.396Z,11.23
2018-12-20T02:18:25.917Z,10.90
2018-12-20T02:20:53.343Z,11.30
2018-12-20T02:23:20.881Z,11.43
2018-12-20T02:25:48.398Z,11.40
2018-12-20T02:28:15.899Z,11.10
2018-12-20T02:30:43.491Z,11.27
2018-12-20T02:33:10.885Z,11.40
2018-12-20T02:35:38.128Z,11.07
2018-12-20T02:38:05.378Z,10.77
2018-12-20T02:40:32.763Z,10.87
2018-12-20T02:43:00.196Z,12.17
2018-12-20T02:45:27.670Z,11.43
2018-12-20T02:47:55.101Z,12.17
2018-12-20T02:50:22.513Z,12.33
2018-12-20T02:52:49.734Z,11.60
2018-12-20T02:55:17.059Z,10.80
2018-12-20T02:57:44.628Z,11.90
2018-12-20T03:00:12.002Z,12.70
2018-12-20T03:02:39.399Z,12.37
2018-12-20T03:05:06.773Z,12.53
2018-12-20T03:07:33.999Z,13.60
2018-12-20T03:10:01.315Z,13.27
2018-12-20T03:12:28.790Z,12.63
2018-12-20T03:14:56.244Z,15.13
2018-12-20T03:17:23.899Z,14.60
2018-12-20T03:19:51.188Z,16.40
2018-12-20T03:22:18.766Z,13.30
2018-12-20T03:24:46.105Z,15.13
2018-12-20T03:27:13.560Z,14.30
2018-12-20T03:29:40.836Z,15.20
2018-12-20T03:32:08.078Z,15.53
2018-12-20T03:34:35.429Z,15.60
2018-12-20T03:37:02.911Z,15.90
2018-12-20T03:39:30.243Z,16.80
2018-12-20T03:41:57.692Z,16.57
2018-12-20T03:44:25.009Z,16.97
2018-12-20T03:46:52.327Z,14.40
2018-12-20T03:49:19.667Z,16.73
2018-12-20T03:51:47.114Z,14.60
2018-12-20T03:54:14.481Z,16.27
2018-12-20T03:56:41.938Z,16.73
2018-12-20T03:59:09.397Z,16.17
2018-12-20T04:01:36.980Z,15.83
2018-12-20T04:04:04.556Z,17.53
2018-12-20T04:06:31.905Z,17.53
2018-12-20T04:08:59.231Z,17.40
2018-12-20T04:11:26.440Z,16.60
2018-12-20T04:13:53.678Z,17.20
2018-12-20T04:16:20.877Z,17.50
2018-12-20T04:18:48.242Z,17.13
2018-12-20T04:21:16.397Z,18.70
2018-12-20T04:23:43.817Z,17.43
2018-12-20T04:26:11.303Z,16.60
2018-12-20T04:28:38.604Z,16.10
2018-12-20T04:31:05.963Z,17.10
2018-12-20T04:33:33.313Z,16.43
2018-12-20T04:36:00.535Z,16.17
2018-12-20T04:38:28.166Z,16.17
2018-12-20T04:40:56.041Z,15.53
2018-12-20T04:43:23.497Z,15.83
2018-12-20T04:45:50.872Z,17.13
2018-12-20T04:48:18.064Z,16.00
2018-12-20T04:50:45.945Z,16.10
2018-12-20T04:53:13.319Z,16.23
2018-12-20T04:55:40.618Z,16.63
2018-12-20T04:58:08.249Z,16.83
2018-12-20T05:00:35.765Z,16.77
2018-12-20T05:03:03.208Z,15.60
2018-12-20T05:05:30.658Z,16.37
2018-12-20T05:07:58.117Z,15.23
2018-12-20T05:10:25.499Z,16.70
2018-12-20T05:12:52.817Z,16.00
2018-12-20T05:15:20.302Z,15.23
2018-12-20T05:17:47.986Z,15.00
2018-12-20T05:20:15.511Z,14.90
2018-12-20T05:22:42.786Z,14.83
2018-12-20T05:25:10.040Z,15.13
2018-12-20T05:27:37.250Z,15.00
2018-12-20T05:30:05.003Z,15.80
2018-12-20T05:32:32.639Z,15.50
2018-12-20T05:35:00.131Z,13.93
2018-12-20T05:37:27.672Z,13.97
2018-12-20T05:39:55.070Z,15.23
2018-12-20T05:42:22.643Z,13.97
2018-12-20T05:44:50.089Z,16.23
2018-12-20T05:47:17.560Z,14.50
2018-12-20T05:49:44.965Z,15.60
2018-12-20T05:52:12.827Z,14.60
2018-12-20T05:54:40.240Z,15.17
2018-12-20T05:57:07.638Z,14.27
2018-12-20T05:59:35.150Z,14.40
2018-12-20T06:02:02.474Z,16.00
2018-12-20T06:04:29.925Z,15.10
2018-12-20T06:06:57.530Z,14.93
2018-12-20T06:09:24.852Z,15.33
2018-12-20T06:11:52.425Z,15.50
2018-12-20T06:14:19.676Z,16.40
2018-12-20T06:16:47.148Z,15.77
2018-12-20T06:19:14.417Z,16.43
2018-12-20T06:21:42.098Z,15.20
2018-12-20T06:24:09.456Z,17.07
2018-12-20T06:26:36.685Z,15.67
2018-12-20T06:29:04.052Z,16.80
2018-12-20T06:31:31.293Z,18.10
2018-12-20T06:33:58.603Z,15.50
2018-12-20T06:36:26.049Z,15.23
2018-12-20T06:38:53.257Z,16.13
2018-12-20T06:41:20.497Z,15.40
2018-12-20T06:43:47.712Z,15.03
2018-12-20T06:46:21.167Z,15.13
2018-12-20T06:48:44.194Z,14.93
2018-12-20T06:51:11.428Z,16.63
2018-12-20T06:53:38.655Z,16.40
2018-12-20T06:56:05.940Z,15.13
2018-12-20T06:58:33.196Z,13.90
2018-12-20T07:01:00.410Z,15.23
2018-12-20T07:03:27.660Z,15.00
2018-12-20T07:05:54.890Z,15.80
2018-12-20T07:08:22.129Z,15.20
2018-12-20T07:10:49.362Z,15.00
2018-12-20T07:13:17.576Z,15.30
2018-12-20T07:15:44.787Z,16.10
2018-12-20T07:18:12.069Z,15.63
2018-12-20T07:20:39.428Z,15.53
2018-12-20T07:23:06.841Z,14.57
2018-12-20T07:25:34.132Z,14.50
2018-12-20T07:28:01.415Z,14.80
2018-12-20T07:30:28.624Z,14.10
2018-12-20T07:32:55.984Z,16.03
2018-12-20T07:35:23.206Z,14.90
2018-12-20T07:37:50.448Z,13.40
2018-12-20T07:40:17.779Z,14.17
2018-12-20T07:42:51.552Z,14.30
2018-12-20T07:45:19.486Z,13.13
2018-12-20T07:47:46.797Z,14.23
2018-12-20T07:50:14.104Z,13.47
2018-12-20T07:52:41.348Z,14.60
2018-12-20T07:55:08.560Z,14.33
2018-12-20T07:57:35.973Z,13.70
2018-12-20T08:00:04.083Z,14.10
2018-12-20T08:02:31.328Z,14.83
2018-12-20T08:04:58.573Z,13.07
2018-12-20T08:07:25.803Z,15.00
2018-12-20T08:09:53.032Z,14.00
2018-12-20T08:12:20.252Z,13.50
2018-12-20T08:14:47.636Z,13.20
2018-12-20T08:17:14.844Z,13.70
2018-12-20T08:19:42.085Z,13.27
2018-12-20T08:22:09.329Z,13.20
2018-12-20T08:24:36.633Z,11.90
2018-12-20T08:27:03.850Z,13.23
2018-12-20T08:29:31.097Z,13.17
2018-12-20T08:31:58.310Z,13.03
2018-12-20T08:34:25.844Z,13.17
2018-12-20T08:36:53.067Z,12.23
2018-12-20T08:39:20.768Z,13.63
2018-12-20T08:41:49.712Z,13.50
2018-12-20T08:44:17.156Z,12.70
2018-12-20T08:46:44.441Z,12.53
2018-12-20T08:49:11.691Z,12.30
2018-12-20T08:51:39.047Z,12.50
2018-12-20T08:54:06.308Z,11.87
2018-12-20T08:56:33.515Z,12.60
2018-12-20T08:59:00.855Z,12.30
2018-12-20T09:01:28.712Z,12.57
2018-12-20T09:03:55.965Z,12.60
2018-12-20T09:06:23.287Z,12.43
2018-12-20T09:08:50.541Z,11.60
2018-12-20T09:11:17.761Z,11.80
2018-12-20T09:13:45.061Z,11.20
2018-12-20T09:16:12.459Z,11.30
2018-12-20T09:18:39.973Z,11.57
2018-12-20T09:21:07.233Z,10.30
2018-12-20T09:23:34.491Z,9.37
2018-12-20T09:26:01.851Z,9.07
2018-12-20T09:28:29.060Z,10.47
2018-12-20T09:30:56.317Z,9.20
2018-12-20T09:33:23.986Z,8.90
2018-12-20T09:35:51.627Z,8.53
2018-12-20T09:38:19.025Z,8.00
2018-12-20T09:40:47.653Z,8.07
2018-12-20T09:43:14.849Z,7.27
2018-12-20T09:45:42.103Z,7.30
2018-12-20T09:48:09.322Z,7.03
2018-12-20T09:50:36.634Z,6.83
2018-12-20T09:53:04.729Z,6.17
2018-12-20T09:55:31.951Z,6.30
2018-12-20T09:57:59.205Z,6.00
2018-12-20T10:00:26.567Z,5.33
2018-12-20T10:02:53.852Z,6.10
2018-12-20T10:05:21.090Z,6.53
2018-12-20T10:07:48.421Z,6.20
2018-12-20T10:10:15.958Z,6.43
2018-12-20T10:12:43.196Z,5.93
2018-12-20T10:15:10.570Z,5.90
2018-12-20T10:17:37.797Z,6.20
2018-12-20T10:20:08.005Z,5.70
2018-12-20T10:22:35.232Z,5.23
2018-12-20T10:25:02.564Z,5.57
2018-12-20T10:27:31.476Z,6.20
2018-12-20T10:29:59.071Z,5.37
2018-12-20T10:32:26.488Z,5.20
2018-12-20T10:34:53.704Z,4.97
2018-12-20T10:37:20.964Z,5.90
2018-12-20T10:39:48.234Z,5.33
2018-12-20T10:42:15.614Z,4.80
2018-12-20T10:44:42.858Z,5.07
2018-12-20T10:47:16.014Z,5.73
2018-12-20T10:49:43.257Z,4.87
2018-12-20T10:52:10.616Z,4.67
2018-12-20T10:54:37.850Z,5.23
2018-12-20T10:57:05.170Z,4.90
2018-12-20T10:59:32.549Z,4.50
2018-12-20T11:02:05.399Z,4.53
2018-12-20T11:04:38.317Z,5.00
2018-12-20T11:07:11.159Z,4.17
2018-12-20T11:09:44.217Z,3.93
2018-12-20T11:12:16.052Z,3.97
2018-12-20T11:14:43.323Z,4.10
2018-12-20T11:17:10.987Z,3.80
2018-12-20T11:19:40.331Z,3.30
2018-12-20T11:22:08.282Z,3.57
2018-12-20T11:24:36.187Z,4.57
2018-12-20T11:27:03.856Z,3.57
2018-12-20T11:29:32.190Z,3.90
2018-12-20T11:31:59.757Z,3.87
2018-12-20T11:34:28.545Z,3.80
2018-12-20T11:36:56.876Z,3.43
2018-12-20T11:39:24.152Z,3.50
2018-12-20T11:41:52.698Z,3.93
2018-12-20T11:44:20.623Z,3.73
2018-12-20T11:46:49.126Z,3.50
2018-12-20T11:49:16.489Z,4.07
2018-12-20T11:51:43.844Z,3.53
2018-12-20T11:54:11.074Z,3.90
2018-12-20T11:56:38.499Z,3.70
2018-12-20T11:59:05.740Z,3.20
2018-12-20T12:01:33.071Z,3.50
2018-12-20T12:04:01.312Z,3.37
2018-12-20T12:06:28.813Z,4.03
2018-12-20T12:08:56.451Z,2.97
2018-12-20T12:11:23.680Z,3.70
2018-12-20T12:13:55.815Z,3.43
2018-12-20T12:16:23.343Z,4.10
2018-12-20T12:18:59.010Z,2.57
2018-12-20T12:21:31.809Z,3.30
2018-12-20T12:24:01.282Z,3.50
2018-12-20T12:26:35.938Z,3.30
2018-12-20T12:30:13.910Z,3.70
2018-12-20T12:32:49.372Z,1.70
2018-12-20T12:35:21.131Z,2.03
2018-12-20T12:37:53.274Z,1.90
2018-12-20T12:43:17.584Z,2.20
2018-12-20T12:45:57.658Z,2.00
2018-12-20T12:48:38.145Z,1.30
2018-12-20T12:51:08.855Z,2.03
2018-12-20T12:53:46.804Z,2.13
2018-12-20T12:56:23.751Z,1.87
2018-12-20T12:58:53.739Z,2.33
2018-12-20T13:01:21.047Z,1.63
2018-12-20T13:03:48.313Z,1.43
2018-12-20T13:06:15.596Z,1.57
2018-12-20T13:08:44.113Z,1.53
2018-12-20T13:11:11.467Z,1.90
2018-12-20T13:13:38.749Z,1.90
2018-12-20T13:16:05.934Z,1.57
2018-12-20T13:18:33.148Z,1.63
2018-12-20T13:21:00.370Z,1.73
2018-12-20T13:23:27.629Z,1.80
2018-12-20T13:25:54.851Z,2.23
2018-12-20T13:28:22.104Z,2.70
2018-12-20T13:30:49.505Z,1.00
2018-12-20T13:33:16.857Z,2.10
2018-12-20T13:35:44.150Z,1.87
2018-12-20T13:38:11.361Z,1.30
2018-12-20T13:40:38.611Z,1.60
2018-12-20T13:43:05.873Z,1.33
2018-12-20T13:45:33.126Z,1.50
2018-12-20T13:48:00.409Z,1.03
2018-12-20T13:50:27.837Z,1.83
2018-12-20T13:52:55.089Z,1.30
2018-12-20T13:55:22.332Z,1.70
2018-12-20T13:57:49.670Z,1.70
2018-12-20T14:00:17.055Z,2.53
2018-12-20T14:02:44.541Z,2.20
2018-12-20T14:05:11.950Z,2.20
2018-12-20T14:07:39.510Z,2.40
2018-12-20T14:10:08.386Z,2.50
2018-12-20T14:12:35.873Z,2.80
2018-12-20T14:15:03.508Z,1.93
2018-12-20T14:17:30.758Z,2.07
2018-12-20T14:19:58.018Z,1.70
2018-12-20T14:22:25.318Z,2.13
2018-12-20T14:24:52.549Z,1.97
2018-12-20T14:27:19.814Z,2.57
2018-12-20T14:29:47.197Z,3.07
2018-12-20T14:34:55.017Z,2.43
2018-12-20T14:37:22.230Z,3.77
2018-12-20T14:39:49.474Z,3.27
2018-12-20T14:42:16.778Z,3.30
2018-12-20T14:44:44.024Z,2.43
2018-12-20T14:47:11.234Z,2.53
2018-12-20T14:49:38.549Z,2.57
2018-12-20T14:52:05.796Z,2.90
2018-12-20T14:54:33.004Z,2.37
2018-12-20T14:57:00.229Z,3.40
2018-12-20T14:59:27.480Z,2.77
2018-12-20T15:01:54.759Z,2.80
2018-12-20T15:04:22.677Z,2.57
2018-12-20T15:06:49.917Z,2.00
2018-12-20T15:09:17.147Z,2.50
2018-12-20T15:11:44.407Z,3.83
2018-12-20T15:14:11.726Z,2.43
2018-12-20T15:16:39.114Z,2.10
2018-12-20T15:19:06.350Z,2.60
2018-12-20T15:21:33.573Z,3.27
2018-12-20T15:24:00.902Z,2.80
2018-12-20T15:26:28.141Z,2.30
2018-12-20T15:28:55.588Z,2.40
2018-12-20T15:31:22.958Z,2.80
2018-12-20T15:33:50.177Z,1.90
2018-12-20T15:36:17.581Z,2.13
2018-12-20T15:38:46.313Z,2.20
2018-12-20T15:41:16.060Z,3.20
2018-12-20T15:43:43.349Z,2.93
2018-12-20T15:46:10.633Z,2.57
2018-12-20T15:48:37.885Z,3.00
2018-12-20T15:51:05.137Z,3.30
2018-12-20T15:53:32.385Z,2.87
2018-12-20T15:55:59.766Z,2.63
2018-12-20T15:58:26.984Z,2.70
2018-12-20T16:00:54.271Z,2.57
2018-12-20T16:03:21.507Z,2.50
2018-12-20T16:05:48.725Z,2.57
2018-12-20T16:08:16.004Z,3.33
2018-12-20T16:10:43.209Z,2.87
2018-12-20T16:13:10.441Z,2.53
2018-12-20T16:15:37.649Z,3.23
2018-12-20T16:18:05.458Z,2.90
2018-12-20T16:20:32.870Z,2.80
2018-12-20T16:23:00.129Z,4.50
2018-12-20T16:25:27.421Z,5.23
2018-12-20T16:27:54.644Z,4.20
2018-12-20T16:30:21.897Z,3.10
2018-12-20T16:32:49.181Z,2.50
2018-12-20T16:35:16.422Z,2.07
2018-12-20T16:37:43.676Z,2.53
2018-12-20T16:40:10.887Z,2.30
2018-12-20T16:42:38.164Z,2.73
2018-12-20T16:45:06.245Z,3.00
2018-12-20T16:47:34.335Z,2.30
2018-12-20T16:50:01.604Z,2.70
2018-12-20T16:52:28.864Z,2.23
2018-12-20T16:54:56.077Z,2.63
2018-12-20T16:57:23.434Z,2.80
2018-12-20T16:59:50.754Z,2.67
2018-12-20T17:02:18.068Z,3.30
2018-12-20T17:04:45.284Z,3.40
2018-12-20T17:07:12.841Z,2.40
2018-12-20T17:09:40.061Z,3.00
2018-12-20T17:12:07.260Z,2.87
2018-12-20T17:14:34.517Z,2.47
2018-12-20T17:17:01.758Z,2.70
2018-12-20T17:19:29.415Z,3.60
2018-12-20T17:21:56.666Z,3.00
2018-12-20T17:24:23.921Z,2.50
2018-12-20T17:26:51.145Z,2.53
2018-12-20T17:29:18.382Z,3.20
2018-12-20T17:31:45.733Z,2.53
2018-12-20T17:34:12.973Z,2.50
2018-12-20T17:36:40.290Z,2.77
2018-12-20T17:39:07.953Z,2.80
2018-12-20T17:41:35.430Z,2.50
2018-12-20T17:44:03.288Z,3.07
2018-12-20T17:46:30.741Z,4.43
2018-12-20T17:48:57.976Z,3.57
2018-12-20T17:51:25.217Z,3.70
2018-12-20T17:53:52.454Z,3.87
2018-12-20T17:56:19.737Z,3.50
2018-12-20T17:58:47.117Z,4.03
2018-12-20T18:01:14.353Z,4.93
2018-12-20T18:03:41.619Z,3.60
2018-12-20T18:06:08.839Z,4.33
2018-12-20T18:08:36.242Z,4.97
2018-12-20T18:11:04.175Z,4.77
2018-12-20T18:13:32.426Z,4.23
2018-12-20T18:16:00.936Z,4.50
2018-12-20T18:18:28.903Z,5.10
2018-12-20T18:20:57.385Z,5.00
2018-12-20T18:23:25.916Z,5.27
2018-12-20T18:25:54.833Z,5.87
2018-12-20T18:28:23.606Z,6.10
2018-12-20T18:30:52.180Z,5.60
2018-12-20T18:33:20.405Z,6.30
2018-12-20T18:35:47.685Z,7.27
2018-12-20T18:38:14.960Z,6.50
2018-12-20T18:40:45.233Z,6.20
2018-12-20T18:43:12.467Z,6.30
2018-12-20T18:45:39.778Z,5.93
2018-12-20T18:48:07.000Z,6.50
2018-12-20T18:50:34.241Z,6.03
2018-12-20T18:53:01.455Z,6.60
2018-12-20T18:55:28.730Z,7.00
2018-12-20T18:57:55.943Z,7.90
2018-12-20T19:00:23.311Z,7.03
2018-12-20T19:02:50.536Z,6.90
2018-12-20T19:05:17.820Z,6.40
2018-12-20T19:07:45.045Z,5.20
2018-12-20T19:10:12.315Z,7.17
2018-12-20T19:12:39.534Z,8.50
2018-12-20T19:15:08.341Z,8.30
2018-12-20T19:17:35.552Z,7.63
2018-12-20T19:20:03.216Z,7.47
2018-12-20T19:22:30.641Z,7.00
2018-12-20T19:24:57.986Z,7.77
2018-12-20T19:27:25.235Z,6.83
2018-12-20T19:29:52.471Z,17.60
2018-12-20T19:32:19.742Z,5.20
2018-12-20T19:34:47.524Z,6.10
2018-12-20T19:37:14.902Z,6.60
2018-12-20T19:39:42.150Z,6.77
2018-12-20T19:42:14.083Z,6.67
2018-12-20T19:44:41.319Z,6.40
2018-12-20T19:47:08.537Z,6.40
2018-12-20T19:49:35.789Z,5.33
2018-12-20T19:52:03.042Z,6.37
2018-12-20T19:54:30.453Z,7.23
2018-12-20T19:57:02.957Z,7.67
2018-12-20T19:59:38.485Z,7.83
2018-12-20T20:02:04.548Z,6.37
2018-12-20T20:04:28.912Z,7.93
2018-12-20T20:06:56.162Z,7.20
2018-12-20T20:09:23.370Z,8.37
2018-12-20T20:11:50.628Z,7.90
2018-12-20T20:14:17.835Z,8.27
2018-12-20T20:16:50.622Z,8.07
2018-12-20T20:19:14.367Z,8.63
2018-12-20T20:21:41.615Z,9.70
2018-12-20T20:24:08.840Z,9.73
2018-12-20T20:26:37.993Z,9.73
2018-12-20T20:29:05.537Z,9.40
2018-12-20T20:31:32.797Z,10.13
2018-12-20T20:34:00.032Z,10.00
2018-12-20T20:36:27.265Z,9.13
2018-12-20T20:39:01.764Z,9.67
2018-12-20T20:41:23.850Z,8.60
2018-12-20T20:43:51.099Z,9.23
2018-12-20T20:46:18.326Z,8.63
2018-12-20T20:48:45.533Z,9.50
2018-12-20T20:51:12.828Z,9.80
2018-12-20T20:53:40.192Z,9.17
2018-12-20T20:56:07.453Z,8.87
2018-12-20T20:58:34.654Z,9.40
2018-12-20T21:01:02.269Z,8.40
2018-12-20T21:03:29.529Z,8.93
2018-12-20T21:05:56.782Z,8.50
2018-12-20T21:08:24.020Z,8.10
2018-12-20T21:10:51.261Z,7.27
2018-12-20T21:13:18.478Z,7.50
2018-12-20T21:15:45.688Z,9.17
2018-12-20T21:18:12.921Z,8.60
2018-12-20T21:20:40.117Z,9.30
2018-12-20T21:23:07.365Z,8.90
2018-12-20T21:25:36.376Z,7.70
2018-12-20T21:28:04.273Z,7.30
2018-12-20T21:30:33.226Z,8.17
2018-12-20T21:33:01.309Z,7.90
2018-12-20T21:35:28.984Z,8.40
2018-12-20T21:37:57.648Z,8.57
2018-12-20T21:40:25.848Z,7.47
2018-12-20T21:42:53.137Z,7.67
2018-12-20T21:45:20.388Z,8.10
2018-12-20T21:47:47.608Z,8.37
2018-12-20T21:50:14.856Z,9.77
2018-12-20T21:52:42.114Z,8.23
2018-12-20T21:55:09.915Z,7.33
2018-12-20T21:57:37.190Z,7.73
2018-12-20T22:00:05.464Z,7.50
2018-12-20T22:02:32.806Z,8.73
2018-12-20T22:05:00.081Z,8.10
2018-12-20T22:07:27.311Z,8.27
2018-12-20T22:09:54.516Z,8.80
2018-12-20T22:12:21.748Z,8.53
2018-12-20T22:14:48.986Z,7.93
2018-12-20T22:17:16.233Z,8.13
2018-12-20T22:19:43.503Z,7.80
2018-12-20T22:22:10.727Z,8.63
2018-12-20T22:24:37.998Z,8.77
2018-12-20T22:27:05.240Z,8.70
2018-12-20T22:29:32.469Z,10.43
2018-12-20T22:31:59.689Z,9.80
2018-12-20T22:34:26.921Z,9.97
2018-12-20T22:36:54.142Z,9.43
2018-12-20T22:39:21.412Z,9.27
2018-12-20T22:41:59.610Z,9.50
2018-12-20T22:44:30.220Z,9.80
2018-12-20T22:47:00.451Z,10.47
2018-12-20T22:49:29.264Z,10.97
2018-12-20T22:52:02.860Z,8.30
2018-12-20T22:54:32.062Z,8.17
2018-12-20T22:57:00.635Z,8.07
2018-12-20T22:59:29.679Z,8.90
2018-12-20T23:01:58.748Z,8.10
2018-12-20T23:04:28.100Z,7.67
2018-12-20T23:06:55.319Z,8.63
2018-12-20T23:09:22.571Z,7.53
2018-12-20T23:11:49.920Z,7.77
2018-12-20T23:14:17.157Z,7.40
2018-12-20T23:16:44.358Z,8.30
2018-12-20T23:19:11.607Z,8.80
2018-12-20T23:21:38.869Z,8.03
2018-12-20T23:24:06.114Z,9.17
2018-12-20T23:26:33.459Z,8.43
2018-12-20T23:29:00.705Z,7.23
2018-12-20T23:31:27.930Z,7.53
2018-12-20T23:33:55.132Z,7.10
2018-12-20T23:36:22.398Z,7.30
2018-12-20T23:38:49.900Z,6.80
2018-12-20T23:41:17.535Z,6.33
2018-12-20T23:43:44.762Z,6.13
2018-12-20T23:46:12.001Z,6.70
2018-12-20T23:48:39.193Z,6.43
2018-12-20T23:51:13.572Z,5.93
2018-12-20T23:53:36.804Z,5.90
2018-12-20T23:56:04.249Z,6.90
2018-12-20T23:58:31.441Z,5.87
